sensor_id;sensor_type;location;lat;lon;timestamp;P1;durP1;ratioP1;P2;durP2;ratioP2
13975;SDS011;7062;49.792;9.946;2023-02-20T00:00:29;5.07;;;3.47;;
13975;SDS011;7062;49.792;9.946;2023-02-20T00:02:56;7.60;;;3.67;;
13975;SDS011;7062;49.792;9.946;2023-02-20T00:05:22;8.80;;;4.63;;
13975;SDS011;7062;49.792;9.946;2023-02-20T00:07:48;7.83;;;4.90;;
13975;SDS011;7062;49.792;9.946;2023-02-20T00:10:17;4.30;;;3.90;;
13975;SDS011;7062;49.792;9.946;2023-02-20T00:12:43;5.73;;;4.17;;
13975;SDS011;7062;49.792;9.946;2023-02-20T00:15:08;10.47;;;4.87;;
13975;SDS011;7062;49.792;9.946;2023-02-20T00:17:37;7.93;;;4.67;;
13975;SDS011;7062;49.792;9.946;2023-02-20T00:20:03;8.30;;;4.63;;
13975;SDS011;7062;49.792;9.946;2023-02-20T00:22:29;8.83;;;4.83;;
13975;SDS011;7062;49.792;9.946;2023-02-20T00:24:55;10.40;;;5.03;;
13975;SDS011;7062;49.792;9.946;2023-02-20T00:27:20;6.87;;;4.70;;
13975;SDS011;7062;49.792;9.946;2023-02-20T00:29:46;8.17;;;4.50;;
13975;SDS011;7062;49.792;9.946;2023-02-20T00:32:12;8.03;;;4.73;;
13975;SDS011;7062;49.792;9.946;2023-02-20T00:34:38;10.10;;;4.47;;
13975;SDS011;7062;49.792;9.946;2023-02-20T00:37:03;10.53;;;4.40;;
13975;SDS011;7062;49.792;9.946;2023-02-20T00:39:32;9.63;;;4.27;;
13975;SDS011;7062;49.792;9.946;2023-02-20T00:41:58;9.50;;;5.53;;
13975;SDS011;7062;49.792;9.946;2023-02-20T00:44:24;8.77;;;5.10;;
13975;SDS011;7062;49.792;9.946;2023-02-20T00:46:50;9.20;;;4.83;;
13975;SDS011;7062;49.792;9.946;2023-02-20T00:49:16;9.77;;;4.13;;
13975;SDS011;7062;49.792;9.946;2023-02-20T00:51:41;11.13;;;5.37;;
13975;SDS011;7062;49.792;9.946;2023-02-20T00:54:07;9.63;;;4.70;;
13975;SDS011;7062;49.792;9.946;2023-02-20T00:56:33;8.07;;;4.63;;
13975;SDS011;7062;49.792;9.946;2023-02-20T00:58:58;8.03;;;4.30;;
13975;SDS011;7062;49.792;9.946;2023-02-20T01:01:24;7.63;;;5.20;;
13975;SDS011;7062;49.792;9.946;2023-02-20T01:03:50;9.47;;;5.33;;
13975;SDS011;7062;49.792;9.946;2023-02-20T01:06:16;6.93;;;4.80;;
13975;SDS011;7062;49.792;9.946;2023-02-20T01:08:41;7.10;;;5.07;;
13975;SDS011;7062;49.792;9.946;2023-02-20T01:11:07;6.63;;;5.33;;
13975;SDS011;7062;49.792;9.946;2023-02-20T01:13:33;9.40;;;5.23;;
13975;SDS011;7062;49.792;9.946;2023-02-20T01:15:58;8.03;;;4.90;;
13975;SDS011;7062;49.792;9.946;2023-02-20T01:18:24;7.47;;;4.97;;
13975;SDS011;7062;49.792;9.946;2023-02-20T01:20:50;12.90;;;5.00;;
13975;SDS011;7062;49.792;9.946;2023-02-20T01:23:16;9.23;;;5.53;;
13975;SDS011;7062;49.792;9.946;2023-02-20T01:25:42;8.97;;;4.97;;
13975;SDS011;7062;49.792;9.946;2023-02-20T01:28:08;10.20;;;5.50;;
13975;SDS011;7062;49.792;9.946;2023-02-20T01:30:34;9.67;;;5.33;;
13975;SDS011;7062;49.792;9.946;2023-02-20T01:33:00;8.87;;;4.70;;
13975;SDS011;7062;49.792;9.946;2023-02-20T01:35:25;9.73;;;5.20;;
13975;SDS011;7062;49.792;9.946;2023-02-20T01:37:55;9.73;;;5.53;;
13975;SDS011;7062;49.792;9.946;2023-02-20T01:40:23;13.37;;;6.30;;
13975;SDS011;7062;49.792;9.946;2023-02-20T01:42:49;10.50;;;5.90;;
13975;SDS011;7062;49.792;9.946;2023-02-20T01:47:47;10.63;;;5.67;;
13975;SDS011;7062;49.792;9.946;2023-02-20T01:50:14;9.57;;;5.83;;
13975;SDS011;7062;49.792;9.946;2023-02-20T01:52:42;10.43;;;5.77;;
13975;SDS011;7062;49.792;9.946;2023-02-20T01:55:11;9.00;;;6.50;;
13975;SDS011;7062;49.792;9.946;2023-02-20T01:57:40;10.97;;;5.50;;
13975;SDS011;7062;49.792;9.946;2023-02-20T02:00:15;8.80;;;5.83;;
13975;SDS011;7062;49.792;9.946;2023-02-20T02:02:54;10.23;;;5.80;;
13975;SDS011;7062;49.792;9.946;2023-02-20T02:05:23;9.00;;;4.97;;
13975;SDS011;7062;49.792;9.946;2023-02-20T02:07:50;13.10;;;5.67;;
13975;SDS011;7062;49.792;9.946;2023-02-20T02:10:17;10.63;;;5.80;;
13975;SDS011;7062;49.792;9.946;2023-02-20T02:12:48;7.50;;;4.90;;
13975;SDS011;7062;49.792;9.946;2023-02-20T02:15:18;9.27;;;6.43;;
13975;SDS011;7062;49.792;9.946;2023-02-20T02:25:55;10.87;;;5.63;;
13975;SDS011;7062;49.792;9.946;2023-02-20T02:45:36;11.27;;;5.97;;
13975;SDS011;7062;49.792;9.946;2023-02-20T02:50:46;8.77;;;5.87;;
13975;SDS011;7062;49.792;9.946;2023-02-20T02:53:13;10.07;;;6.07;;
13975;SDS011;7062;49.792;9.946;2023-02-20T02:55:39;8.10;;;5.83;;
13975;SDS011;7062;49.792;9.946;2023-02-20T02:58:05;10.13;;;6.20;;
13975;SDS011;7062;49.792;9.946;2023-02-20T03:00:52;7.33;;;6.13;;
13975;SDS011;7062;49.792;9.946;2023-02-20T03:03:29;13.60;;;6.67;;
13975;SDS011;7062;49.792;9.946;2023-02-20T03:06:00;8.73;;;6.30;;
13975;SDS011;7062;49.792;9.946;2023-02-20T03:10:55;7.97;;;6.13;;
13975;SDS011;7062;49.792;9.946;2023-02-20T03:13:31;11.87;;;6.10;;
13975;SDS011;7062;49.792;9.946;2023-02-20T03:16:21;7.38;;;4.97;;
13975;SDS011;7062;49.792;9.946;2023-02-20T03:18:54;6.30;;;4.90;;
13975;SDS011;7062;49.792;9.946;2023-02-20T03:21:25;9.93;;;5.33;;
13975;SDS011;7062;49.792;9.946;2023-02-20T03:23:56;8.10;;;5.47;;
13975;SDS011;7062;49.792;9.946;2023-02-20T03:26:29;9.70;;;5.43;;
13975;SDS011;7062;49.792;9.946;2023-02-20T03:29:03;9.07;;;5.50;;
13975;SDS011;7062;49.792;9.946;2023-02-20T03:31:36;9.50;;;5.63;;
13975;SDS011;7062;49.792;9.946;2023-02-20T03:36:59;7.77;;;5.20;;
13975;SDS011;7062;49.792;9.946;2023-02-20T03:40:11;6.40;;;5.07;;
13975;SDS011;7062;49.792;9.946;2023-02-20T03:42:59;7.23;;;6.27;;
13975;SDS011;7062;49.792;9.946;2023-02-20T03:45:45;7.53;;;5.30;;
13975;SDS011;7062;49.792;9.946;2023-02-20T03:48:34;10.70;;;5.47;;
13975;SDS011;7062;49.792;9.946;2023-02-20T03:51:02;13.10;;;5.30;;
13975;SDS011;7062;49.792;9.946;2023-02-20T03:53:38;8.57;;;4.73;;
13975;SDS011;7062;49.792;9.946;2023-02-20T03:56:06;7.37;;;5.00;;
13975;SDS011;7062;49.792;9.946;2023-02-20T03:58:36;10.00;;;6.65;;
13975;SDS011;7062;49.792;9.946;2023-02-20T04:01:05;6.57;;;5.65;;
13975;SDS011;7062;49.792;9.946;2023-02-20T04:03:37;8.27;;;5.43;;
13975;SDS011;7062;49.792;9.946;2023-02-20T04:06:06;10.10;;;5.10;;
13975;SDS011;7062;49.792;9.946;2023-02-20T04:11:21;9.03;;;5.20;;
13975;SDS011;7062;49.792;9.946;2023-02-20T04:13:51;10.27;;;4.97;;
13975;SDS011;7062;49.792;9.946;2023-02-20T04:16:18;8.07;;;6.47;;
13975;SDS011;7062;49.792;9.946;2023-02-20T04:18:45;7.97;;;5.03;;
13975;SDS011;7062;49.792;9.946;2023-02-20T04:21:17;8.83;;;6.30;;
13975;SDS011;7062;49.792;9.946;2023-02-20T04:23:51;10.70;;;5.85;;
13975;SDS011;7062;49.792;9.946;2023-02-20T04:26:27;8.30;;;5.53;;
13975;SDS011;7062;49.792;9.946;2023-02-20T04:28:53;11.00;;;5.67;;
13975;SDS011;7062;49.792;9.946;2023-02-20T04:31:19;6.27;;;5.40;;
13975;SDS011;7062;49.792;9.946;2023-02-20T04:33:45;10.07;;;5.63;;
13975;SDS011;7062;49.792;9.946;2023-02-20T04:36:11;9.07;;;6.43;;
13975;SDS011;7062;49.792;9.946;2023-02-20T04:38:37;9.17;;;6.03;;
13975;SDS011;7062;49.792;9.946;2023-02-20T04:41:02;9.30;;;5.97;;
13975;SDS011;7062;49.792;9.946;2023-02-20T04:43:28;7.93;;;4.47;;
13975;SDS011;7062;49.792;9.946;2023-02-20T04:45:54;8.10;;;5.57;;
13975;SDS011;7062;49.792;9.946;2023-02-20T04:48:19;8.90;;;6.03;;
13975;SDS011;7062;49.792;9.946;2023-02-20T04:50:45;8.73;;;5.53;;
13975;SDS011;7062;49.792;9.946;2023-02-20T04:53:11;8.73;;;4.63;;
13975;SDS011;7062;49.792;9.946;2023-02-20T04:55:36;11.60;;;5.73;;
13975;SDS011;7062;49.792;9.946;2023-02-20T04:58:02;8.27;;;6.13;;
13975;SDS011;7062;49.792;9.946;2023-02-20T05:00:28;8.45;;;5.15;;
13975;SDS011;7062;49.792;9.946;2023-02-20T05:02:55;11.50;;;6.00;;
13975;SDS011;7062;49.792;9.946;2023-02-20T05:05:23;6.18;;;4.40;;
13975;SDS011;7062;49.792;9.946;2023-02-20T05:07:54;8.88;;;5.45;;
13975;SDS011;7062;49.792;9.946;2023-02-20T05:10:20;6.77;;;4.87;;
13975;SDS011;7062;49.792;9.946;2023-02-20T05:12:46;9.02;;;5.38;;
13975;SDS011;7062;49.792;9.946;2023-02-20T05:15:12;11.33;;;5.40;;
13975;SDS011;7062;49.792;9.946;2023-02-20T05:17:38;7.88;;;5.15;;
13975;SDS011;7062;49.792;9.946;2023-02-20T05:20:04;8.93;;;5.67;;
13975;SDS011;7062;49.792;9.946;2023-02-20T05:22:31;7.53;;;4.80;;
13975;SDS011;7062;49.792;9.946;2023-02-20T05:24:57;8.10;;;5.63;;
13975;SDS011;7062;49.792;9.946;2023-02-20T05:27:23;11.63;;;5.47;;
13975;SDS011;7062;49.792;9.946;2023-02-20T05:29:51;6.68;;;5.32;;
13975;SDS011;7062;49.792;9.946;2023-02-20T05:32:18;7.68;;;5.72;;
13975;SDS011;7062;49.792;9.946;2023-02-20T05:34:44;9.37;;;5.27;;
13975;SDS011;7062;49.792;9.946;2023-02-20T05:37:11;8.32;;;5.25;;
13975;SDS011;7062;49.792;9.946;2023-02-20T05:39:37;6.80;;;4.88;;
13975;SDS011;7062;49.792;9.946;2023-02-20T05:42:04;7.73;;;5.83;;
13975;SDS011;7062;49.792;9.946;2023-02-20T05:44:30;8.57;;;5.70;;
13975;SDS011;7062;49.792;9.946;2023-02-20T05:46:56;5.90;;;5.18;;
13975;SDS011;7062;49.792;9.946;2023-02-20T05:49:22;8.70;;;6.27;;
13975;SDS011;7062;49.792;9.946;2023-02-20T05:51:48;7.68;;;5.68;;
13975;SDS011;7062;49.792;9.946;2023-02-20T05:54:15;6.33;;;5.73;;
13975;SDS011;7062;49.792;9.946;2023-02-20T05:56:41;8.32;;;5.40;;
13975;SDS011;7062;49.792;9.946;2023-02-20T05:59:08;10.32;;;5.78;;
13975;SDS011;7062;49.792;9.946;2023-02-20T06:01:34;7.00;;;5.35;;
13975;SDS011;7062;49.792;9.946;2023-02-20T06:04:00;10.20;;;5.60;;
13975;SDS011;7062;49.792;9.946;2023-02-20T06:06:38;7.87;;;5.57;;
13975;SDS011;7062;49.792;9.946;2023-02-20T06:09:05;11.48;;;6.05;;
13975;SDS011;7062;49.792;9.946;2023-02-20T06:11:37;7.15;;;5.43;;
13975;SDS011;7062;49.792;9.946;2023-02-20T06:14:03;6.93;;;5.85;;
13975;SDS011;7062;49.792;9.946;2023-02-20T06:16:31;9.85;;;5.82;;
13975;SDS011;7062;49.792;9.946;2023-02-20T06:18:57;6.85;;;5.03;;
13975;SDS011;7062;49.792;9.946;2023-02-20T06:21:24;7.90;;;5.15;;
13975;SDS011;7062;49.792;9.946;2023-02-20T06:23:50;6.65;;;5.30;;
13975;SDS011;7062;49.792;9.946;2023-02-20T06:26:17;7.67;;;5.40;;
13975;SDS011;7062;49.792;9.946;2023-02-20T06:28:44;6.57;;;4.68;;
13975;SDS011;7062;49.792;9.946;2023-02-20T06:31:11;11.80;;;6.83;;
13975;SDS011;7062;49.792;9.946;2023-02-20T06:33:37;8.30;;;5.15;;
13975;SDS011;7062;49.792;9.946;2023-02-20T06:36:03;8.23;;;5.77;;
13975;SDS011;7062;49.792;9.946;2023-02-20T06:38:29;10.10;;;5.25;;
13975;SDS011;7062;49.792;9.946;2023-02-20T06:40:55;7.10;;;5.33;;
13975;SDS011;7062;49.792;9.946;2023-02-20T06:43:21;11.03;;;5.60;;
13975;SDS011;7062;49.792;9.946;2023-02-20T06:45:47;11.10;;;5.40;;
13975;SDS011;7062;49.792;9.946;2023-02-20T06:48:13;9.77;;;6.53;;
13975;SDS011;7062;49.792;9.946;2023-02-20T06:50:39;6.75;;;5.28;;
13975;SDS011;7062;49.792;9.946;2023-02-20T06:53:06;7.95;;;6.00;;
13975;SDS011;7062;49.792;9.946;2023-02-20T06:55:32;9.93;;;6.53;;
13975;SDS011;7062;49.792;9.946;2023-02-20T06:57:57;12.40;;;7.10;;
13975;SDS011;7062;49.792;9.946;2023-02-20T07:00:23;9.90;;;5.57;;
13975;SDS011;7062;49.792;9.946;2023-02-20T07:02:49;9.15;;;5.80;;
13975;SDS011;7062;49.792;9.946;2023-02-20T07:05:15;8.30;;;6.90;;
13975;SDS011;7062;49.792;9.946;2023-02-20T07:07:40;9.43;;;5.87;;
13975;SDS011;7062;49.792;9.946;2023-02-20T07:10:06;6.57;;;5.80;;
13975;SDS011;7062;49.792;9.946;2023-02-20T07:12:32;10.53;;;6.83;;
13975;SDS011;7062;49.792;9.946;2023-02-20T07:15:02;14.52;;;7.30;;
13975;SDS011;7062;49.792;9.946;2023-02-20T07:17:28;10.13;;;6.30;;
13975;SDS011;7062;49.792;9.946;2023-02-20T07:19:54;16.47;;;7.27;;
13975;SDS011;7062;49.792;9.946;2023-02-20T07:22:20;7.63;;;5.63;;
13975;SDS011;7062;49.792;9.946;2023-02-20T07:24:48;9.60;;;5.87;;
13975;SDS011;7062;49.792;9.946;2023-02-20T07:27:18;6.15;;;5.13;;
13975;SDS011;7062;49.792;9.946;2023-02-20T07:29:47;11.83;;;6.03;;
13975;SDS011;7062;49.792;9.946;2023-02-20T07:32:14;7.05;;;5.35;;
13975;SDS011;7062;49.792;9.946;2023-02-20T07:34:44;7.05;;;4.80;;
13975;SDS011;7062;49.792;9.946;2023-02-20T07:37:10;7.93;;;4.63;;
13975;SDS011;7062;49.792;9.946;2023-02-20T07:39:37;4.90;;;3.85;;
13975;SDS011;7062;49.792;9.946;2023-02-20T07:42:02;7.03;;;3.93;;
13975;SDS011;7062;49.792;9.946;2023-02-20T07:44:28;8.73;;;5.33;;
13975;SDS011;7062;49.792;9.946;2023-02-20T07:46:54;4.67;;;3.90;;
13975;SDS011;7062;49.792;9.946;2023-02-20T07:49:19;5.93;;;4.77;;
13975;SDS011;7062;49.792;9.946;2023-02-20T07:51:45;7.43;;;3.70;;
13975;SDS011;7062;49.792;9.946;2023-02-20T07:54:11;8.67;;;4.07;;
13975;SDS011;7062;49.792;9.946;2023-02-20T07:56:36;8.10;;;3.70;;
13975;SDS011;7062;49.792;9.946;2023-02-20T07:59:04;7.10;;;4.03;;
13975;SDS011;7062;49.792;9.946;2023-02-20T08:01:30;10.17;;;5.13;;
13975;SDS011;7062;49.792;9.946;2023-02-20T08:03:56;4.87;;;4.00;;
13975;SDS011;7062;49.792;9.946;2023-02-20T08:06:21;9.77;;;3.87;;
13975;SDS011;7062;49.792;9.946;2023-02-20T08:08:50;6.53;;;3.73;;
13975;SDS011;7062;49.792;9.946;2023-02-20T08:11:16;7.17;;;4.30;;
13975;SDS011;7062;49.792;9.946;2023-02-20T08:13:43;3.37;;;2.43;;
13975;SDS011;7062;49.792;9.946;2023-02-20T08:16:09;5.03;;;3.27;;
13975;SDS011;7062;49.792;9.946;2023-02-20T08:18:35;7.33;;;3.93;;
13975;SDS011;7062;49.792;9.946;2023-02-20T08:21:01;5.73;;;3.90;;
13975;SDS011;7062;49.792;9.946;2023-02-20T08:23:27;6.43;;;3.50;;
13975;SDS011;7062;49.792;9.946;2023-02-20T08:25:53;5.47;;;2.93;;
13975;SDS011;7062;49.792;9.946;2023-02-20T08:28:19;3.33;;;2.90;;
13975;SDS011;7062;49.792;9.946;2023-02-20T08:30:45;3.53;;;2.93;;
13975;SDS011;7062;49.792;9.946;2023-02-20T08:33:11;7.13;;;3.63;;
13975;SDS011;7062;49.792;9.946;2023-02-20T08:35:37;5.90;;;2.97;;
13975;SDS011;7062;49.792;9.946;2023-02-20T08:38:07;4.30;;;2.77;;
13975;SDS011;7062;49.792;9.946;2023-02-20T08:40:48;3.37;;;2.63;;
13975;SDS011;7062;49.792;9.946;2023-02-20T08:43:13;4.60;;;3.03;;
13975;SDS011;7062;49.792;9.946;2023-02-20T08:45:39;4.90;;;2.73;;
13975;SDS011;7062;49.792;9.946;2023-02-20T08:48:05;4.70;;;2.80;;
13975;SDS011;7062;49.792;9.946;2023-02-20T08:50:30;8.77;;;3.50;;
13975;SDS011;7062;49.792;9.946;2023-02-20T08:52:56;4.97;;;3.60;;
13975;SDS011;7062;49.792;9.946;2023-02-20T08:55:22;5.70;;;2.73;;
13975;SDS011;7062;49.792;9.946;2023-02-20T08:57:47;5.70;;;2.50;;
13975;SDS011;7062;49.792;9.946;2023-02-20T09:00:13;8.53;;;3.47;;
13975;SDS011;7062;49.792;9.946;2023-02-20T09:02:41;6.90;;;3.33;;
13975;SDS011;7062;49.792;9.946;2023-02-20T09:05:07;6.17;;;3.00;;
13975;SDS011;7062;49.792;9.946;2023-02-20T09:07:33;3.70;;;2.50;;
13975;SDS011;7062;49.792;9.946;2023-02-20T09:09:59;7.30;;;2.93;;
13975;SDS011;7062;49.792;9.946;2023-02-20T09:12:25;7.33;;;2.97;;
13975;SDS011;7062;49.792;9.946;2023-02-20T09:14:50;7.80;;;3.77;;
13975;SDS011;7062;49.792;9.946;2023-02-20T09:17:16;4.20;;;3.13;;
13975;SDS011;7062;49.792;9.946;2023-02-20T09:19:42;5.50;;;3.13;;
13975;SDS011;7062;49.792;9.946;2023-02-20T09:22:07;4.37;;;3.10;;
13975;SDS011;7062;49.792;9.946;2023-02-20T09:24:33;4.03;;;2.93;;
13975;SDS011;7062;49.792;9.946;2023-02-20T09:26:59;4.87;;;3.40;;
13975;SDS011;7062;49.792;9.946;2023-02-20T09:29:26;6.40;;;3.30;;
13975;SDS011;7062;49.792;9.946;2023-02-20T09:31:52;5.23;;;2.90;;
13975;SDS011;7062;49.792;9.946;2023-02-20T09:34:18;9.83;;;2.70;;
13975;SDS011;7062;49.792;9.946;2023-02-20T09:36:44;7.73;;;3.00;;
13975;SDS011;7062;49.792;9.946;2023-02-20T09:39:10;5.20;;;2.60;;
13975;SDS011;7062;49.792;9.946;2023-02-20T09:47:26;3.90;;;2.50;;
13975;SDS011;7062;49.792;9.946;2023-02-20T09:50:10;6.10;;;2.07;;
13975;SDS011;7062;49.792;9.946;2023-02-20T09:52:40;2.43;;;1.80;;
13975;SDS011;7062;49.792;9.946;2023-02-20T09:55:11;5.30;;;2.17;;
13975;SDS011;7062;49.792;9.946;2023-02-20T09:57:45;4.67;;;2.40;;
13975;SDS011;7062;49.792;9.946;2023-02-20T10:00:19;4.00;;;2.40;;
13975;SDS011;7062;49.792;9.946;2023-02-20T10:05:43;4.43;;;2.83;;
13975;SDS011;7062;49.792;9.946;2023-02-20T10:08:10;5.97;;;3.17;;
13975;SDS011;7062;49.792;9.946;2023-02-20T10:10:40;5.97;;;2.90;;
13975;SDS011;7062;49.792;9.946;2023-02-20T10:23:48;7.20;;;3.17;;
13975;SDS011;7062;49.792;9.946;2023-02-20T10:26:33;8.97;;;3.00;;
13975;SDS011;7062;49.792;9.946;2023-02-20T10:31:52;6.50;;;2.87;;
13975;SDS011;7062;49.792;9.946;2023-02-20T10:34:38;4.40;;;2.60;;
13975;SDS011;7062;49.792;9.946;2023-02-20T10:37:15;5.00;;;2.53;;
13975;SDS011;7062;49.792;9.946;2023-02-20T10:39:47;4.40;;;2.53;;
13975;SDS011;7062;49.792;9.946;2023-02-20T10:42:25;6.73;;;2.87;;
13975;SDS011;7062;49.792;9.946;2023-02-20T10:48:11;5.33;;;3.50;;
13975;SDS011;7062;49.792;9.946;2023-02-20T10:50:43;6.20;;;2.50;;
13975;SDS011;7062;49.792;9.946;2023-02-20T10:53:23;4.13;;;2.50;;
13975;SDS011;7062;49.792;9.946;2023-02-20T11:01:21;5.70;;;2.97;;
13975;SDS011;7062;49.792;9.946;2023-02-20T11:06:19;5.93;;;2.63;;
13975;SDS011;7062;49.792;9.946;2023-02-20T11:08:47;5.33;;;2.70;;
13975;SDS011;7062;49.792;9.946;2023-02-20T11:11:20;5.37;;;3.40;;
13975;SDS011;7062;49.792;9.946;2023-02-20T11:13:52;5.43;;;2.23;;
13975;SDS011;7062;49.792;9.946;2023-02-20T11:16:29;5.77;;;2.80;;
13975;SDS011;7062;49.792;9.946;2023-02-20T11:19:01;4.90;;;2.30;;
13975;SDS011;7062;49.792;9.946;2023-02-20T11:21:37;6.63;;;2.27;;
13975;SDS011;7062;49.792;9.946;2023-02-20T11:24:22;6.53;;;2.20;;
13975;SDS011;7062;49.792;9.946;2023-02-20T11:26:58;2.60;;;1.67;;
13975;SDS011;7062;49.792;9.946;2023-02-20T11:30:10;6.60;;;3.00;;
13975;SDS011;7062;49.792;9.946;2023-02-20T11:32:58;4.03;;;1.67;;
13975;SDS011;7062;49.792;9.946;2023-02-20T11:35:27;4.83;;;2.63;;
13975;SDS011;7062;49.792;9.946;2023-02-20T11:40:57;5.63;;;2.30;;
13975;SDS011;7062;49.792;9.946;2023-02-20T11:46:35;3.50;;;1.70;;
13975;SDS011;7062;49.792;9.946;2023-02-20T11:54:13;2.33;;;1.30;;
13975;SDS011;7062;49.792;9.946;2023-02-20T11:57:10;4.37;;;1.97;;
13975;SDS011;7062;49.792;9.946;2023-02-20T12:02:33;5.07;;;1.83;;
13975;SDS011;7062;49.792;9.946;2023-02-20T12:05:01;2.77;;;1.40;;
13975;SDS011;7062;49.792;9.946;2023-02-20T12:07:38;4.90;;;1.93;;
13975;SDS011;7062;49.792;9.946;2023-02-20T12:10:09;2.93;;;1.23;;
13975;SDS011;7062;49.792;9.946;2023-02-20T12:12:47;5.00;;;1.37;;
13975;SDS011;7062;49.792;9.946;2023-02-20T12:15:13;4.23;;;1.60;;
13975;SDS011;7062;49.792;9.946;2023-02-20T12:17:45;3.20;;;1.83;;
13975;SDS011;7062;49.792;9.946;2023-02-20T12:20:32;2.27;;;1.17;;
13975;SDS011;7062;49.792;9.946;2023-02-20T12:31:03;3.93;;;1.60;;
13975;SDS011;7062;49.792;9.946;2023-02-20T12:39:16;4.70;;;1.80;;
13975;SDS011;7062;49.792;9.946;2023-02-20T12:47:33;4.77;;;1.80;;
13975;SDS011;7062;49.792;9.946;2023-02-20T12:50:26;3.73;;;1.60;;
13975;SDS011;7062;49.792;9.946;2023-02-20T12:52:57;3.57;;;1.83;;
13975;SDS011;7062;49.792;9.946;2023-02-20T13:00:45;4.47;;;2.40;;
13975;SDS011;7062;49.792;9.946;2023-02-20T13:03:15;5.17;;;1.43;;
13975;SDS011;7062;49.792;9.946;2023-02-20T13:05:43;5.30;;;1.70;;
13975;SDS011;7062;49.792;9.946;2023-02-20T13:08:16;3.67;;;1.13;;
13975;SDS011;7062;49.792;9.946;2023-02-20T13:10:55;3.17;;;1.27;;
13975;SDS011;7062;49.792;9.946;2023-02-20T13:13:23;5.70;;;1.97;;
13975;SDS011;7062;49.792;9.946;2023-02-20T13:16:18;5.80;;;1.63;;
13975;SDS011;7062;49.792;9.946;2023-02-20T13:21:39;6.03;;;1.30;;
13975;SDS011;7062;49.792;9.946;2023-02-20T13:24:11;3.60;;;1.57;;
13975;SDS011;7062;49.792;9.946;2023-02-20T13:26:55;5.43;;;1.30;;
13975;SDS011;7062;49.792;9.946;2023-02-20T13:29:24;3.33;;;1.47;;
13975;SDS011;7062;49.792;9.946;2023-02-20T13:31:53;3.43;;;1.03;;
13975;SDS011;7062;49.792;9.946;2023-02-20T13:36:52;2.33;;;1.30;;
13975;SDS011;7062;49.792;9.946;2023-02-20T13:42:30;3.67;;;1.40;;
13975;SDS011;7062;49.792;9.946;2023-02-20T13:44:55;2.07;;;1.00;;
13975;SDS011;7062;49.792;9.946;2023-02-20T13:47:27;4.23;;;1.43;;
13975;SDS011;7062;49.792;9.946;2023-02-20T13:52:31;5.23;;;1.07;;
13975;SDS011;7062;49.792;9.946;2023-02-20T13:57:56;4.20;;;1.00;;
13975;SDS011;7062;49.792;9.946;2023-02-20T14:00:32;9.00;;;1.47;;
13975;SDS011;7062;49.792;9.946;2023-02-20T14:03:25;2.77;;;1.10;;
13975;SDS011;7062;49.792;9.946;2023-02-20T14:08:44;6.00;;;1.70;;
13975;SDS011;7062;49.792;9.946;2023-02-20T14:14:06;2.30;;;1.40;;
13975;SDS011;7062;49.792;9.946;2023-02-20T14:16:35;6.27;;;1.03;;
13975;SDS011;7062;49.792;9.946;2023-02-20T14:19:25;2.70;;;1.30;;
13975;SDS011;7062;49.792;9.946;2023-02-20T14:21:54;4.87;;;1.30;;
13975;SDS011;7062;49.792;9.946;2023-02-20T14:24:27;5.13;;;1.40;;
13975;SDS011;7062;49.792;9.946;2023-02-20T14:26:53;6.33;;;1.83;;
13975;SDS011;7062;49.792;9.946;2023-02-20T14:29:28;3.63;;;1.30;;
13975;SDS011;7062;49.792;9.946;2023-02-20T14:31:59;5.23;;;1.73;;
13975;SDS011;7062;49.792;9.946;2023-02-20T14:37:26;4.43;;;2.00;;
13975;SDS011;7062;49.792;9.946;2023-02-20T14:40:12;3.63;;;1.70;;
13975;SDS011;7062;49.792;9.946;2023-02-20T14:42:50;4.67;;;1.30;;
13975;SDS011;7062;49.792;9.946;2023-02-20T14:45:18;4.43;;;1.50;;
13975;SDS011;7062;49.792;9.946;2023-02-20T14:47:54;4.63;;;1.20;;
13975;SDS011;7062;49.792;9.946;2023-02-20T14:53:00;7.47;;;1.60;;
13975;SDS011;7062;49.792;9.946;2023-02-20T14:55:28;3.53;;;1.50;;
13975;SDS011;7062;49.792;9.946;2023-02-20T14:57:54;3.93;;;1.20;;
13975;SDS011;7062;49.792;9.946;2023-02-20T15:00:24;3.60;;;1.37;;
13975;SDS011;7062;49.792;9.946;2023-02-20T15:02:58;2.47;;;1.20;;
13975;SDS011;7062;49.792;9.946;2023-02-20T15:05:28;6.77;;;2.17;;
13975;SDS011;7062;49.792;9.946;2023-02-20T15:08:03;5.13;;;1.73;;
13975;SDS011;7062;49.792;9.946;2023-02-20T15:10:41;4.07;;;1.87;;
13975;SDS011;7062;49.792;9.946;2023-02-20T15:13:34;3.40;;;1.77;;
13975;SDS011;7062;49.792;9.946;2023-02-20T15:16:12;5.10;;;2.07;;
13975;SDS011;7062;49.792;9.946;2023-02-20T15:18:43;6.67;;;1.60;;
13975;SDS011;7062;49.792;9.946;2023-02-20T15:21:13;6.53;;;1.87;;
13975;SDS011;7062;49.792;9.946;2023-02-20T15:23:43;4.57;;;1.80;;
13975;SDS011;7062;49.792;9.946;2023-02-20T15:26:26;2.67;;;1.33;;
13975;SDS011;7062;49.792;9.946;2023-02-20T15:31:55;5.63;;;1.70;;
13975;SDS011;7062;49.792;9.946;2023-02-20T15:34:23;4.37;;;1.43;;
13975;SDS011;7062;49.792;9.946;2023-02-20T15:36:54;3.40;;;2.30;;
13975;SDS011;7062;49.792;9.946;2023-02-20T15:39:20;5.80;;;1.73;;
13975;SDS011;7062;49.792;9.946;2023-02-20T15:41:46;4.50;;;2.53;;
13975;SDS011;7062;49.792;9.946;2023-02-20T15:44:13;11.37;;;1.93;;
13975;SDS011;7062;49.792;9.946;2023-02-20T15:46:38;6.10;;;2.30;;
13975;SDS011;7062;49.792;9.946;2023-02-20T15:49:04;4.43;;;1.80;;
13975;SDS011;7062;49.792;9.946;2023-02-20T15:51:31;3.87;;;2.00;;
13975;SDS011;7062;49.792;9.946;2023-02-20T15:54:01;3.97;;;2.17;;
13975;SDS011;7062;49.792;9.946;2023-02-20T15:56:28;5.57;;;2.73;;
13975;SDS011;7062;49.792;9.946;2023-02-20T15:59:01;4.07;;;1.83;;
13975;SDS011;7062;49.792;9.946;2023-02-20T16:01:31;3.67;;;1.60;;
13975;SDS011;7062;49.792;9.946;2023-02-20T16:03:57;2.50;;;1.80;;
13975;SDS011;7062;49.792;9.946;2023-02-20T16:06:23;3.33;;;1.50;;
13975;SDS011;7062;49.792;9.946;2023-02-20T16:08:49;6.23;;;2.13;;
13975;SDS011;7062;49.792;9.946;2023-02-20T16:11:15;4.03;;;1.73;;
13975;SDS011;7062;49.792;9.946;2023-02-20T16:13:46;5.93;;;2.13;;
13975;SDS011;7062;49.792;9.946;2023-02-20T16:18:56;4.07;;;1.67;;
13975;SDS011;7062;49.792;9.946;2023-02-20T16:21:22;2.80;;;1.87;;
13975;SDS011;7062;49.792;9.946;2023-02-20T16:23:48;3.47;;;1.50;;
13975;SDS011;7062;49.792;9.946;2023-02-20T16:26:15;3.47;;;1.70;;
13975;SDS011;7062;49.792;9.946;2023-02-20T16:28:42;5.83;;;2.83;;
13975;SDS011;7062;49.792;9.946;2023-02-20T16:31:13;6.93;;;2.10;;
13975;SDS011;7062;49.792;9.946;2023-02-20T16:33:38;3.77;;;2.03;;
13975;SDS011;7062;49.792;9.946;2023-02-20T16:36:04;5.37;;;1.97;;
13975;SDS011;7062;49.792;9.946;2023-02-20T16:38:30;4.83;;;1.30;;
13975;SDS011;7062;49.792;9.946;2023-02-20T16:40:55;5.17;;;2.30;;
13975;SDS011;7062;49.792;9.946;2023-02-20T16:43:23;6.33;;;1.90;;
13975;SDS011;7062;49.792;9.946;2023-02-20T16:45:49;6.37;;;2.47;;
13975;SDS011;7062;49.792;9.946;2023-02-20T16:48:17;5.83;;;2.33;;
13975;SDS011;7062;49.792;9.946;2023-02-20T16:50:46;4.23;;;1.43;;
13975;SDS011;7062;49.792;9.946;2023-02-20T16:53:14;3.73;;;1.80;;
13975;SDS011;7062;49.792;9.946;2023-02-20T16:55:40;5.27;;;1.97;;
13975;SDS011;7062;49.792;9.946;2023-02-20T16:58:06;6.70;;;2.00;;
13975;SDS011;7062;49.792;9.946;2023-02-20T17:00:36;4.63;;;1.57;;
13975;SDS011;7062;49.792;9.946;2023-02-20T17:03:05;4.00;;;1.50;;
13975;SDS011;7062;49.792;9.946;2023-02-20T17:05:32;4.43;;;1.50;;
13975;SDS011;7062;49.792;9.946;2023-02-20T17:07:59;4.53;;;1.50;;
13975;SDS011;7062;49.792;9.946;2023-02-20T17:10:26;3.33;;;1.67;;
13975;SDS011;7062;49.792;9.946;2023-02-20T17:12:53;3.53;;;2.63;;
13975;SDS011;7062;49.792;9.946;2023-02-20T17:15:20;7.33;;;1.63;;
13975;SDS011;7062;49.792;9.946;2023-02-20T17:17:46;4.40;;;1.50;;
13975;SDS011;7062;49.792;9.946;2023-02-20T17:20:22;8.27;;;1.57;;
13975;SDS011;7062;49.792;9.946;2023-02-20T17:22:49;4.37;;;1.63;;
13975;SDS011;7062;49.792;9.946;2023-02-20T17:25:18;4.43;;;1.93;;
13975;SDS011;7062;49.792;9.946;2023-02-20T17:27:45;6.47;;;2.37;;
13975;SDS011;7062;49.792;9.946;2023-02-20T17:30:11;6.03;;;1.83;;
13975;SDS011;7062;49.792;9.946;2023-02-20T17:32:37;5.37;;;1.90;;
13975;SDS011;7062;49.792;9.946;2023-02-20T17:35:04;3.13;;;1.33;;